createdAt,value
2019-03-25T00:01:21.309Z,78.70
2019-03-25T00:03:49.913Z,79.10
2019-03-25T00:06:18.789Z,79.90
2019-03-25T00:08:47.414Z,81.20
2019-03-25T00:11:16.108Z,80.70
2019-03-25T00:13:44.935Z,81.00
2019-03-25T00:16:13.673Z,81.20
2019-03-25T00:18:42.346Z,81.30
2019-03-25T00:21:12.734Z,82.00
2019-03-25T00:23:41.346Z,82.00
2019-03-25T00:26:10.038Z,82.10
2019-03-25T00:28:38.716Z,81.90
2019-03-25T00:31:07.269Z,82.30
2019-03-25T00:43:58.358Z,84.10
2019-03-25T00:46:26.978Z,84.30
2019-03-25T00:48:55.605Z,84.70
2019-03-25T00:51:24.393Z,84.50
2019-03-25T00:53:53.068Z,84.80
2019-03-25T00:56:21.718Z,84.40
2019-03-25T00:58:50.316Z,84.10
2019-03-25T01:01:18.960Z,84.20
2019-03-25T01:03:47.596Z,83.60
2019-03-25T01:06:16.385Z,83.50
2019-03-25T01:08:45.044Z,83.60
2019-03-25T01:11:13.726Z,84.20
2019-03-25T01:13:42.325Z,83.60
2019-03-25T01:16:11.070Z,83.70
2019-03-25T01:18:39.650Z,83.70
2019-03-25T01:21:08.316Z,83.90
2019-03-25T01:23:36.970Z,83.50
2019-03-25T01:26:05.596Z,83.60
2019-03-25T01:28:34.248Z,84.40
2019-03-25T01:31:02.801Z,84.60
2019-03-25T01:33:31.422Z,84.80
2019-03-25T01:36:00.031Z,84.40
2019-03-25T01:38:28.724Z,84.40
2019-03-25T01:40:57.446Z,83.90
2019-03-25T01:43:26.128Z,83.40
2019-03-25T01:45:54.674Z,83.20
2019-03-25T01:48:23.253Z,84.10
2019-03-25T01:50:51.836Z,83.90
2019-03-25T01:53:20.455Z,84.30
2019-03-25T01:55:49.105Z,84.90
2019-03-25T01:58:17.762Z,84.70
2019-03-25T02:00:46.321Z,85.50
2019-03-25T02:03:14.806Z,85.40
2019-03-25T02:05:43.522Z,85.50
2019-03-25T02:08:12.069Z,86.20
2019-03-25T02:10:40.746Z,86.40
2019-03-25T02:13:09.412Z,86.90
2019-03-25T02:15:37.988Z,87.20
2019-03-25T02:18:06.690Z,87.00
2019-03-25T02:20:35.404Z,87.20
2019-03-25T02:23:04.114Z,87.10
2019-03-25T02:25:33.261Z,86.80
2019-03-25T02:28:01.761Z,87.00
2019-03-25T02:30:30.401Z,88.20
2019-03-25T02:32:59.009Z,88.00
2019-03-25T02:35:27.678Z,87.90
2019-03-25T02:37:56.246Z,87.60
2019-03-25T02:40:24.823Z,87.00
2019-03-25T02:42:53.492Z,86.70
2019-03-25T02:45:22.131Z,87.40
2019-03-25T02:47:50.819Z,87.70
2019-03-25T02:50:19.412Z,87.10
2019-03-25T02:52:48.081Z,87.10
2019-03-25T02:55:16.701Z,86.40
2019-03-25T02:57:45.316Z,86.50
2019-03-25T03:00:15.972Z,86.70
2019-03-25T03:02:44.511Z,86.60
2019-03-25T03:05:13.258Z,87.40
2019-03-25T03:07:41.896Z,87.30
2019-03-25T03:10:10.779Z,87.20
2019-03-25T03:12:39.371Z,87.10
2019-03-25T03:15:08.262Z,87.40
2019-03-25T03:17:36.959Z,87.90
2019-03-25T03:20:07.589Z,88.10
2019-03-25T03:22:36.121Z,88.10
2019-03-25T03:25:05.478Z,88.30
2019-03-25T03:27:34.042Z,88.40
2019-03-25T03:30:02.687Z,88.40
2019-03-25T03:32:31.221Z,88.80
2019-03-25T03:34:59.871Z,89.20
2019-03-25T03:37:28.495Z,89.00
2019-03-25T03:39:57.123Z,88.80
2019-03-25T03:42:25.745Z,88.60
2019-03-25T03:44:54.390Z,88.20
2019-03-25T03:47:23.012Z,88.70
2019-03-25T03:49:51.580Z,88.80
2019-03-25T03:52:20.572Z,88.90
2019-03-25T03:54:49.867Z,88.70
2019-03-25T03:57:19.198Z,88.50
2019-03-25T03:59:49.435Z,88.50
2019-03-25T04:02:18.014Z,88.50
2019-03-25T04:04:46.638Z,88.60
2019-03-25T04:07:15.250Z,88.60
2019-03-25T04:09:43.919Z,88.50
2019-03-25T04:12:12.536Z,88.30
2019-03-25T04:14:41.142Z,88.20
2019-03-25T04:17:09.761Z,88.20
2019-03-25T04:19:38.343Z,88.30
2019-03-25T04:22:06.887Z,88.20
2019-03-25T04:24:35.583Z,87.40
2019-03-25T04:27:04.340Z,87.40
2019-03-25T04:29:32.895Z,87.50
2019-03-25T04:32:01.720Z,87.00
2019-03-25T04:34:30.303Z,86.90
2019-03-25T04:37:02.209Z,87.20
2019-03-25T04:39:30.980Z,86.90
2019-03-25T04:42:02.965Z,86.70
2019-03-25T04:44:33.554Z,86.20
2019-03-25T04:47:03.993Z,86.30
2019-03-25T04:49:40.791Z,86.00
2019-03-25T04:52:17.935Z,85.20
2019-03-25T04:54:48.652Z,85.10
2019-03-25T04:57:18.689Z,84.00
2019-03-25T04:59:47.606Z,83.90
2019-03-25T05:02:16.197Z,83.80
2019-03-25T05:07:34.243Z,82.50
2019-03-25T05:10:03.189Z,82.30
2019-03-25T05:12:31.707Z,83.30
2019-03-25T05:15:18.490Z,83.50
2019-03-25T05:17:47.364Z,83.30
2019-03-25T05:20:16.503Z,82.60
2019-03-25T05:22:47.825Z,82.80
2019-03-25T05:25:24.307Z,83.00
2019-03-25T05:27:55.223Z,82.40
2019-03-25T05:30:29.235Z,82.90
2019-03-25T05:32:56.329Z,82.20
2019-03-25T05:35:30.620Z,82.70
2019-03-25T05:38:04.897Z,83.10
2019-03-25T05:40:33.645Z,83.20
2019-03-25T05:43:02.731Z,82.60
2019-03-25T05:45:33.538Z,83.00
2019-03-25T05:48:03.655Z,82.60
2019-03-25T05:50:34.462Z,82.50
2019-03-25T05:53:05.319Z,82.20
2019-03-25T05:55:34.234Z,81.90
2019-03-25T05:58:03.135Z,82.20
2019-03-25T06:00:36.135Z,82.50
2019-03-25T06:03:10.826Z,82.30
2019-03-25T06:06:05.903Z,82.30
2019-03-25T06:08:48.521Z,82.50
2019-03-25T06:11:20.994Z,82.00
2019-03-25T06:14:20.679Z,82.10
2019-03-25T06:17:07.057Z,82.20
2019-03-25T06:19:46.340Z,82.10
2019-03-25T06:22:16.725Z,82.20
2019-03-25T06:25:12.806Z,81.70
2019-03-25T06:44:45.999Z,82.00
2019-03-25T06:51:03.535Z,80.30
2019-03-25T06:53:56.821Z,80.70
2019-03-25T06:56:25.393Z,80.30
2019-03-25T07:05:02.073Z,81.40
2019-03-25T07:07:59.097Z,80.70
2019-03-25T07:10:38.055Z,80.90
2019-03-25T07:13:08.583Z,80.60
2019-03-25T07:15:37.377Z,80.40
2019-03-25T07:18:20.929Z,79.80
2019-03-25T07:20:57.510Z,80.00
2019-03-25T07:23:26.598Z,79.50
2019-03-25T07:26:10.092Z,80.00
2019-03-25T07:29:01.480Z,79.30
2019-03-25T07:31:33.333Z,78.60
2019-03-25T07:34:06.983Z,78.90
2019-03-25T07:36:35.595Z,78.90
2019-03-25T07:39:07.419Z,79.60
2019-03-25T07:41:36.537Z,79.30
2019-03-25T07:44:26.689Z,78.50
2019-03-25T07:46:55.677Z,78.40
2019-03-25T07:49:25.863Z,78.30
2019-03-25T07:52:02.273Z,78.40
2019-03-25T07:54:30.789Z,78.70
2019-03-25T07:56:59.435Z,77.00
2019-03-25T07:59:28.419Z,77.00
2019-03-25T08:01:57.175Z,76.80
2019-03-25T08:04:25.739Z,76.00
2019-03-25T08:06:54.377Z,76.10
2019-03-25T08:09:23.215Z,76.20
2019-03-25T08:11:52.040Z,75.80
2019-03-25T08:14:20.897Z,75.60
2019-03-25T08:16:54.680Z,74.70
2019-03-25T08:19:35.281Z,74.60
2019-03-25T08:22:13.959Z,74.50
2019-03-25T08:27:39.444Z,75.10
2019-03-25T08:32:58.733Z,74.40
2019-03-25T08:38:35.320Z,72.60
2019-03-25T08:41:04.029Z,71.50
2019-03-25T08:43:32.659Z,71.30
2019-03-25T08:46:01.577Z,71.80
2019-03-25T08:48:33.317Z,69.30
2019-03-25T08:51:07.438Z,67.90
2019-03-25T08:53:36.025Z,66.40
2019-03-25T08:56:04.812Z,66.20
2019-03-25T08:58:33.497Z,66.60
2019-03-25T09:01:02.053Z,66.60
2019-03-25T09:03:30.677Z,66.40
2019-03-25T09:05:59.605Z,66.20
2019-03-25T09:08:28.331Z,65.70
2019-03-25T09:10:57.374Z,65.90
2019-03-25T09:13:26.418Z,65.00
2019-03-25T09:15:55.714Z,65.30
2019-03-25T09:18:24.707Z,65.50
2019-03-25T09:20:53.657Z,65.00
2019-03-25T09:23:22.964Z,65.50
2019-03-25T09:25:53.378Z,66.60
2019-03-25T09:28:24.535Z,64.70
2019-03-25T09:30:55.777Z,65.50
2019-03-25T09:33:24.652Z,64.20
2019-03-25T09:35:53.690Z,64.90
2019-03-25T09:38:27.075Z,66.00
2019-03-25T09:41:16.149Z,63.50
2019-03-25T09:43:54.159Z,64.20
2019-03-25T09:46:32.482Z,65.70
2019-03-25T09:49:16.040Z,65.00
2019-03-25T09:51:44.864Z,64.60
2019-03-25T09:54:13.565Z,64.70
2019-03-25T09:56:42.192Z,64.80
2019-03-25T09:59:12.591Z,64.70
2019-03-25T10:01:41.516Z,65.90
2019-03-25T10:04:10.609Z,62.70
2019-03-25T10:06:39.496Z,63.10
2019-03-25T10:09:10.945Z,63.30
2019-03-25T10:11:39.755Z,62.60
2019-03-25T10:14:08.697Z,62.30
2019-03-25T10:16:37.353Z,61.10
2019-03-25T10:19:06.173Z,60.80
2019-03-25T10:21:39.333Z,62.30
2019-03-25T10:27:11.739Z,62.60
2019-03-25T10:29:42.001Z,62.60
2019-03-25T10:32:14.146Z,63.20
2019-03-25T10:34:44.743Z,61.70
2019-03-25T10:37:19.639Z,62.00
2019-03-25T10:39:48.364Z,60.80
2019-03-25T10:42:17.252Z,60.70
2019-03-25T10:44:48.899Z,60.80
2019-03-25T10:48:06.720Z,60.00
2019-03-25T10:50:15.578Z,61.20
2019-03-25T10:52:47.133Z,60.70
2019-03-25T10:55:17.351Z,60.60
2019-03-25T10:57:46.090Z,61.40
2019-03-25T11:00:15.356Z,61.00
2019-03-25T11:02:47.473Z,61.20
2019-03-25T11:05:15.593Z,61.00
2019-03-25T11:07:50.222Z,62.30
2019-03-25T11:10:23.583Z,62.30
2019-03-25T11:12:52.244Z,64.20
2019-03-25T11:15:25.343Z,67.40
2019-03-25T11:17:54.014Z,67.70
2019-03-25T11:20:22.645Z,67.70
2019-03-25T11:22:51.300Z,67.40
2019-03-25T11:25:19.984Z,66.50
2019-03-25T11:27:54.338Z,65.70
2019-03-25T11:30:21.976Z,63.80
2019-03-25T11:32:50.555Z,62.50
2019-03-25T11:35:19.174Z,63.90
2019-03-25T11:37:47.773Z,61.40
2019-03-25T11:40:16.516Z,61.40
2019-03-25T11:42:45.206Z,60.50
2019-03-25T11:45:14.504Z,62.00
2019-03-25T11:47:43.214Z,63.00
2019-03-25T11:50:12.498Z,63.10
2019-03-25T11:52:41.173Z,64.50
2019-03-25T11:55:11.539Z,64.50
2019-03-25T11:57:40.234Z,64.00
2019-03-25T12:00:10.032Z,65.00
2019-03-25T12:02:38.998Z,66.30
2019-03-25T12:05:08.514Z,64.40
2019-03-25T12:07:37.337Z,61.90
2019-03-25T12:10:06.754Z,58.50
2019-03-25T12:12:39.715Z,57.90
2019-03-25T12:15:09.635Z,57.00
2019-03-25T12:17:39.883Z,55.20
2019-03-25T12:20:09.854Z,53.00
2019-03-25T12:22:38.500Z,52.80
2019-03-25T12:25:07.909Z,51.60
2019-03-25T12:27:36.559Z,52.70
2019-03-25T12:30:07.754Z,52.50
2019-03-25T12:32:36.452Z,52.60
2019-03-25T12:35:06.884Z,52.70
2019-03-25T12:37:35.565Z,52.10
2019-03-25T12:40:07.631Z,52.20
2019-03-25T12:42:35.343Z,54.10
2019-03-25T12:45:06.038Z,55.30
2019-03-25T12:47:34.708Z,55.80
2019-03-25T12:50:03.476Z,55.40
2019-03-25T12:52:32.083Z,56.10
2019-03-25T12:55:00.672Z,57.00
2019-03-25T12:57:29.341Z,57.30
2019-03-25T12:59:57.930Z,56.90
2019-03-25T13:02:26.550Z,57.60
2019-03-25T13:04:55.101Z,56.70
2019-03-25T13:07:23.764Z,56.90
2019-03-25T13:09:52.347Z,55.70
2019-03-25T13:12:20.984Z,54.50
2019-03-25T13:14:49.630Z,55.60
2019-03-25T13:17:18.180Z,56.00
2019-03-25T13:19:46.791Z,54.00
2019-03-25T13:22:15.566Z,54.60
2019-03-25T13:24:44.150Z,56.20
2019-03-25T13:27:12.784Z,56.70
2019-03-25T13:29:51.790Z,57.20
2019-03-25T13:32:11.634Z,56.10
2019-03-25T13:35:22.399Z,53.00
2019-03-25T13:38:02.700Z,52.30
2019-03-25T13:43:34.504Z,52.30
2019-03-25T13:46:06.031Z,55.60
2019-03-25T13:48:34.569Z,58.00
2019-03-25T13:51:03.537Z,59.80
2019-03-25T13:53:33.164Z,61.80
2019-03-25T13:56:02.191Z,62.50
2019-03-25T13:58:31.386Z,61.90
2019-03-25T14:01:00.370Z,60.10
2019-03-25T14:03:28.982Z,59.40
2019-03-25T14:05:57.585Z,59.20
2019-03-25T14:08:28.792Z,59.20
2019-03-25T14:14:03.963Z,58.00
2019-03-25T14:16:43.905Z,59.40
2019-03-25T14:19:21.889Z,61.10
2019-03-25T14:24:39.428Z,62.80
2019-03-25T14:27:03.065Z,64.10
2019-03-25T14:30:00.331Z,66.10
2019-03-25T14:42:49.137Z,63.30
2019-03-25T14:45:03.111Z,64.20
2019-03-25T14:47:31.888Z,63.70
2019-03-25T14:50:00.439Z,65.20
2019-03-25T14:52:29.253Z,67.50
2019-03-25T14:54:57.800Z,67.00
2019-03-25T14:57:26.487Z,66.90
2019-03-25T14:59:55.059Z,64.50
2019-03-25T15:02:23.691Z,63.40
2019-03-25T15:04:52.366Z,64.20
2019-03-25T15:07:21.014Z,64.70
2019-03-25T15:09:49.585Z,65.40
2019-03-25T15:12:18.271Z,65.70
2019-03-25T15:14:46.910Z,64.70
2019-03-25T15:17:15.466Z,63.60
2019-03-25T15:19:44.162Z,63.70
2019-03-25T15:22:12.736Z,63.90
2019-03-25T15:24:41.230Z,65.10
2019-03-25T15:27:09.778Z,66.50
2019-03-25T15:29:38.537Z,66.90
2019-03-25T15:32:07.089Z,66.70
2019-03-25T15:34:35.980Z,66.80
2019-03-25T15:37:04.552Z,67.20
2019-03-25T15:39:33.184Z,67.70
2019-03-25T15:42:01.731Z,68.30
2019-03-25T15:44:30.667Z,68.60
2019-03-25T15:46:59.136Z,67.60
2019-03-25T15:49:27.788Z,66.40
2019-03-25T15:51:56.496Z,65.90
2019-03-25T15:54:25.086Z,66.40
2019-03-25T15:56:53.615Z,66.40
2019-03-25T15:59:22.269Z,67.00
2019-03-25T16:01:50.854Z,67.30
2019-03-25T16:04:19.460Z,69.50
2019-03-25T16:06:48.100Z,70.80
2019-03-25T16:09:18.343Z,72.90
2019-03-25T16:11:46.957Z,75.00
2019-03-25T16:14:15.584Z,77.60
2019-03-25T16:16:44.134Z,77.50
2019-03-25T16:19:12.804Z,78.50
2019-03-25T16:21:41.424Z,78.60
2019-03-25T16:24:10.043Z,79.30
2019-03-25T16:26:38.550Z,79.10
2019-03-25T16:29:07.196Z,77.60
2019-03-25T16:31:35.732Z,77.30
2019-03-25T16:34:04.349Z,75.90
2019-03-25T16:36:32.925Z,76.30
2019-03-25T16:39:01.438Z,76.10
2019-03-25T16:41:29.984Z,76.10
2019-03-25T16:43:58.503Z,76.80
2019-03-25T16:46:27.140Z,75.70
2019-03-25T16:48:55.735Z,74.20
2019-03-25T16:51:24.458Z,74.00
2019-03-25T16:53:53.200Z,73.60
2019-03-25T16:56:21.942Z,74.80
2019-03-25T16:58:50.612Z,75.90
2019-03-25T17:01:19.224Z,76.80
2019-03-25T17:03:47.944Z,78.10
2019-03-25T17:06:16.550Z,77.30
2019-03-25T17:08:45.306Z,78.20
2019-03-25T17:11:13.988Z,78.80
2019-03-25T17:13:42.729Z,78.30
2019-03-25T17:16:11.323Z,78.70
2019-03-25T17:18:39.959Z,78.00
2019-03-25T17:21:08.603Z,77.80
2019-03-25T17:23:37.160Z,76.90
2019-03-25T17:26:05.802Z,76.80
2019-03-25T17:28:34.670Z,77.10
2019-03-25T17:31:03.329Z,77.20
2019-03-25T17:33:32.108Z,77.70
2019-03-25T17:36:00.771Z,77.60
2019-03-25T17:38:29.351Z,78.20
2019-03-25T17:40:57.923Z,78.20
2019-03-25T17:43:26.600Z,78.00
2019-03-25T17:45:55.214Z,76.80
2019-03-25T17:48:23.903Z,76.60
2019-03-25T17:50:53.015Z,76.20
2019-03-25T17:53:21.797Z,76.70
2019-03-25T17:55:50.470Z,77.30
2019-03-25T17:58:19.210Z,76.50
2019-03-25T18:00:50.838Z,76.00
2019-03-25T18:03:19.460Z,76.30
2019-03-25T18:05:48.117Z,76.60
2019-03-25T18:08:19.727Z,76.20
2019-03-25T18:10:48.388Z,76.60
2019-03-25T18:13:22.266Z,76.60
2019-03-25T18:15:47.197Z,76.30
2019-03-25T18:18:15.986Z,76.60
2019-03-25T18:20:44.707Z,76.70
2019-03-25T18:23:13.276Z,76.70
2019-03-25T18:25:42.045Z,77.30
2019-03-25T18:28:10.687Z,77.30
2019-03-25T18:30:40.237Z,77.40
2019-03-25T18:33:11.203Z,77.50
2019-03-25T18:35:39.575Z,77.60
2019-03-25T18:38:08.242Z,78.20
2019-03-25T18:40:37.669Z,77.70
2019-03-25T18:43:06.489Z,78.10
2019-03-25T18:45:35.338Z,78.50
2019-03-25T18:48:04.112Z,79.20
2019-03-25T18:50:36.967Z,79.40
2019-03-25T18:53:03.131Z,79.80
2019-03-25T18:55:31.868Z,79.40
2019-03-25T18:58:00.513Z,79.10
2019-03-25T19:00:36.531Z,80.10
2019-03-25T19:03:05.439Z,80.00
2019-03-25T19:05:34.213Z,80.00
2019-03-25T19:08:04.439Z,80.10
2019-03-25T19:10:36.790Z,79.40
2019-03-25T19:13:12.755Z,79.10
2019-03-25T19:15:41.473Z,78.70
2019-03-25T19:18:10.108Z,78.80
2019-03-25T19:20:38.794Z,79.00
2019-03-25T19:23:09.409Z,79.10
2019-03-25T19:25:37.990Z,79.60
2019-03-25T19:28:06.691Z,79.70
2019-03-25T19:30:35.608Z,79.20
2019-03-25T19:33:05.908Z,78.70
2019-03-25T19:35:34.410Z,79.20
2019-03-25T19:38:03.086Z,79.70
2019-03-25T19:40:31.623Z,79.00
2019-03-25T19:43:00.266Z,78.70
2019-03-25T19:45:29.459Z,79.20
2019-03-25T19:47:58.044Z,77.20
2019-03-25T19:50:26.681Z,77.00
2019-03-25T19:52:55.321Z,74.30
2019-03-25T19:55:23.902Z,74.00
2019-03-25T19:57:52.397Z,74.00
2019-03-25T20:00:35.743Z,75.00
2019-03-25T20:03:07.110Z,75.00
2019-03-25T20:05:35.810Z,76.60
2019-03-25T20:08:04.555Z,76.70
2019-03-25T20:10:37.010Z,77.10
2019-03-25T20:13:05.921Z,75.50
2019-03-25T20:15:45.414Z,74.90
2019-03-25T20:18:04.987Z,74.80
2019-03-25T20:20:33.649Z,75.00
2019-03-25T20:23:02.247Z,74.50
2019-03-25T20:25:30.965Z,75.20
2019-03-25T20:27:59.662Z,75.00
2019-03-25T20:30:28.294Z,75.90
2019-03-25T20:32:56.970Z,76.50
2019-03-25T20:35:25.641Z,77.00
2019-03-25T20:37:54.391Z,77.70
2019-03-25T20:40:23.131Z,77.80
2019-03-25T20:42:51.782Z,76.90
2019-03-25T20:45:20.450Z,76.40
2019-03-25T20:47:49.135Z,76.70
2019-03-25T20:50:17.752Z,76.60
2019-03-25T20:52:46.396Z,76.40
2019-03-25T20:55:15.475Z,76.20
2019-03-25T20:57:44.251Z,75.90
2019-03-25T21:00:13.516Z,75.50
2019-03-25T21:02:45.361Z,75.50
2019-03-25T21:05:14.599Z,75.00
2019-03-25T21:07:43.209Z,74.50
2019-03-25T21:10:12.068Z,74.70
2019-03-25T21:12:40.724Z,74.80
2019-03-25T21:15:09.647Z,75.30
2019-03-25T21:17:38.406Z,74.70
2019-03-25T21:20:07.912Z,74.90
2019-03-25T21:22:36.735Z,75.10
2019-03-25T21:25:08.111Z,75.50
2019-03-25T21:27:36.894Z,75.80
2019-03-25T21:30:07.994Z,75.30
2019-03-25T21:32:36.675Z,75.40
2019-03-25T21:35:06.897Z,75.70
2019-03-25T21:37:35.709Z,76.70
2019-03-25T21:40:06.834Z,76.80
2019-03-25T21:42:35.546Z,76.90
2019-03-25T21:45:08.312Z,77.20
2019-03-25T21:47:36.932Z,77.10
2019-03-25T21:50:07.191Z,77.40
2019-03-25T21:52:35.908Z,78.60
2019-03-25T21:55:06.281Z,78.40
2019-03-25T21:57:34.917Z,78.50
2019-03-25T22:00:05.906Z,78.10
2019-03-25T22:02:36.056Z,78.30
2019-03-25T22:05:06.541Z,78.20
2019-03-25T22:07:35.105Z,78.50
2019-03-25T22:10:04.771Z,79.10
2019-03-25T22:12:33.395Z,78.20
2019-03-25T22:15:02.024Z,78.70
2019-03-25T22:17:30.679Z,79.50
2019-03-25T22:19:59.319Z,80.00
2019-03-25T22:22:27.869Z,80.00
2019-03-25T22:24:56.504Z,79.90
2019-03-25T22:27:25.133Z,80.00
2019-03-25T22:29:53.748Z,79.90
2019-03-25T22:32:22.335Z,80.20
2019-03-25T22:34:50.966Z,80.20
2019-03-25T22:37:19.523Z,80.30
2019-03-25T22:39:48.039Z,80.20
2019-03-25T22:42:16.679Z,80.60
2019-03-25T22:44:45.169Z,79.80
2019-03-25T22:47:13.737Z,80.00
2019-03-25T22:49:42.387Z,79.60
2019-03-25T22:52:11.006Z,79.80
2019-03-25T22:54:39.580Z,79.60
2019-03-25T22:57:08.187Z,79.40
2019-03-25T22:59:36.743Z,79.70
2019-03-25T23:02:05.633Z,79.90
2019-03-25T23:04:34.152Z,79.50
2019-03-25T23:07:02.783Z,80.00
2019-03-25T23:09:31.539Z,79.90
2019-03-25T23:12:00.354Z,80.50
2019-03-25T23:14:28.999Z,80.40
2019-03-25T23:16:57.577Z,81.00
2019-03-25T23:19:26.206Z,81.30
2019-03-25T23:21:54.780Z,81.10
2019-03-25T23:24:23.453Z,81.00
2019-03-25T23:26:52.081Z,81.10
2019-03-25T23:29:20.762Z,81.20
2019-03-25T23:31:49.269Z,81.60
2019-03-25T23:34:17.884Z,81.20
2019-03-25T23:36:46.599Z,81.00
2019-03-25T23:39:15.291Z,80.90
2019-03-25T23:41:43.848Z,81.40
2019-03-25T23:44:12.429Z,81.60
2019-03-25T23:46:41.138Z,81.50
2019-03-25T23:49:09.701Z,81.10
2019-03-25T23:51:38.365Z,81.30
2019-03-25T23:54:14.582Z,81.60
2019-03-25T23:56:43.471Z,81.00
2019-03-25T23:59:12.165Z,80.90
